Lake Park, Minnesota
Current Conditions -  °F | °C
As of 6:15 AM on Saturday 20 Dec 2014 (Local Time) from KDTL Reporting Station
Haze Haze  
Wind Chill: 21°   Ceiling: 400
Heat Index: 30°   Visibility: 4mi
Dew Point: 30°   Wind: 10mph
Humidity: 100%   Direction: 200°SSW
Pressure: 30.02"   Gusts: 16mph
Location:  46.89°N, 96.09°W
Report Text: KDTL 201215Z AUTO 20009G14KT 4SM BR OVC004 M01/M01 A3002 RMK AO2
Loading
Personal Weather Stations






























Interactive Weather Map New forecast layout! Learn more

10-Day Weather Forecast

Advertisements
Track Severe Weather on mobile